PWSweather.com
Personal Weather Stations
Station Observations
DEEPSOUTH
Waverley, InvercargillNZ 9810

WaverleyInvercargillNZ 9810

Lat: -46.3926834, Lon: 168.381112

Elevation: 72

Station Type: Davis VP2

http://www.deepsouthweather.co.nz/

Latest ConditionsUpdated 3:10:00 AM GMT+11:11 Tuesday, Sep 23, 2014
Currently Today's Max Today's Min Today's Average
Temperature 36.1°F2.3°C 40.8°F4.9°C 35.8°F2.1°C 37.6°F3.1°C
Dew Point 34.0°F1.1°C 36.4°F2.4°C 33.1°F0.6°C 34.4°F1.3°C
Winds 1.0 mph N1.6 kmh N 3.0 mph NNW4.8 kmh NNW - 0.7 mph 1.1 kmh
Wind Gusts 4.0 mph6.4 kmh 7.0 mph11.3 kmh - -
Humidity 92% 92% 84% 88%
Pressure 29.87 in1011.5 mb 29.92 in1013.2 mb 29.85 in1010.8 mb -
Hour Temp Dew Point Humidity Winds Wind Gusts Pressure Precip Precip Rate Daily Precip Total
03:10 AM 36.1°F2.3°C 34.0°F1.1°C 92% 1.0 mph N1.6 kmh N 4.0 mph6.4 kmh 29.87 in1011.5 mb 0.00 in0.0 mm 0.00 in/hr0.0 mm/hr 0.00 in0.0 mm
03:00 AM 36.0°F2.2°C 33.9°F1.1°C 92% Calm Calm -- 29.88 in1011.9 mb 0.00 in0.0 mm 0.00 in/hr0.0 mm/hr 0.00 in0.0 mm
02:50 AM 36.0°F2.2°C 33.9°F1.1°C 92% Calm Calm -- 29.87 in1011.5 mb 0.00 in0.0 mm 0.00 in/hr0.0 mm/hr 0.00 in0.0 mm
02:40 AM 35.8°F2.1°C 33.1°F0.6°C 90% Calm Calm -- 29.86 in1011.2 mb 0.00 in0.0 mm 0.00 in/hr0.0 mm/hr 0.00 in0.0 mm
02:30 AM 36.0°F2.2°C 33.6°F0.9°C 91% Calm Calm -- 29.86 in1011.2 mb 0.00 in0.0 mm 0.00 in/hr0.0 mm/hr 0.00 in0.0 mm
02:20 AM 36.1°F2.3°C 33.8°F1.0°C 91% Calm Calm -- 29.86 in1011.2 mb 0.00 in0.0 mm 0.00 in/hr0.0 mm/hr 0.00 in0.0 mm
02:10 AM 36.1°F2.3°C 33.5°F0.8°C 90% Calm Calm -- 29.85 in1010.8 mb 0.00 in0.0 mm 0.00 in/hr0.0 mm/hr 0.00 in0.0 mm
02:00 AM 36.5°F2.5°C 33.8°F1.0°C 90% Calm Calm -- 29.85 in1010.8 mb 0.00 in0.0 mm 0.00 in/hr0.0 mm/hr 0.00 in0.0 mm
01:50 AM 36.9°F2.7°C 33.9°F1.1°C 89% Calm Calm -- 29.87 in1011.5 mb 0.00 in0.0 mm 0.00 in/hr0.0 mm/hr 0.00 in0.0 mm
01:40 AM 36.9°F2.7°C 33.9°F1.1°C 89% Calm Calm 2.0 mph3.2 kmh 29.88 in1011.9 mb 0.00 in0.0 mm 0.00 in/hr0.0 mm/hr 0.00 in0.0 mm
01:30 AM 37.0°F2.8°C 33.8°F1.0°C 88% 1.0 mph NW1.6 kmh NW 4.0 mph6.4 kmh 29.89 in1012.2 mb 0.00 in0.0 mm 0.00 in/hr0.0 mm/hr 0.00 in0.0 mm
01:20 AM 37.6°F3.1°C 34.3°F1.3°C 88% Calm Calm -- 29.89 in1012.2 mb 0.00 in0.0 mm 0.00 in/hr0.0 mm/hr 0.00 in0.0 mm
01:10 AM 37.8°F3.2°C 34.2°F1.2°C 87% Calm Calm -- 29.89 in1012.2 mb 0.00 in0.0 mm 0.00 in/hr0.0 mm/hr 0.00 in0.0 mm
01:00 AM 38.3°F3.5°C 34.8°F1.6°C 87% Calm Calm -- 29.90 in1012.5 mb 0.00 in0.0 mm 0.00 in/hr0.0 mm/hr 0.00 in0.0 mm
12:50 AM 38.8°F3.8°C 35.0°F1.7°C 86% 1.0 mph N1.6 kmh N 4.0 mph6.4 kmh 29.90 in1012.5 mb 0.00 in0.0 mm 0.00 in/hr0.0 mm/hr 0.00 in0.0 mm
12:40 AM 39.2°F4.0°C 35.4°F1.9°C 86% 1.0 mph N1.6 kmh N 4.0 mph6.4 kmh 29.90 in1012.5 mb 0.00 in0.0 mm 0.00 in/hr0.0 mm/hr 0.00 in0.0 mm
12:30 AM 39.6°F4.2°C 35.7°F2.1°C 86% 2.0 mph N3.2 kmh N 5.0 mph8.0 kmh 29.91 in1012.9 mb 0.00 in0.0 mm 0.00 in/hr0.0 mm/hr 0.00 in0.0 mm
12:20 AM 39.9°F4.4°C 35.8°F2.1°C 85% 2.0 mph NNW3.2 kmh NNW 5.0 mph8.0 kmh 29.92 in1013.2 mb 0.00 in0.0 mm 0.00 in/hr0.0 mm/hr 0.00 in0.0 mm
12:10 AM 40.5°F4.7°C 36.0°F2.2°C 84% 2.0 mph NNW3.2 kmh NNW 6.0 mph9.7 kmh 29.92 in1013.2 mb 0.00 in0.0 mm 0.00 in/hr0.0 mm/hr 0.00 in0.0 mm
12:00 AM 40.8°F4.9°C 36.4°F2.4°C 84% 3.0 mph NNW4.8 kmh NNW 7.0 mph11.3 kmh 29.92 in1013.2 mb 0.00 in0.0 mm 0.00 in/hr0.0 mm/hr 0.00 in0.0 mm